sensor_id;sensor_type;location;lat;lon;timestamp;temperature;humidity
12520;DHT22;6325;49.540;8.364;2023-04-24T00:00:53;12.30;99.90
12520;DHT22;6325;49.540;8.364;2023-04-24T00:03:22;12.00;99.90
12520;DHT22;6325;49.540;8.364;2023-04-24T00:05:49;12.70;99.90
12520;DHT22;6325;49.540;8.364;2023-04-24T00:08:16;12.10;99.90
12520;DHT22;6325;49.540;8.364;2023-04-24T00:10:44;12.30;99.90
12520;DHT22;6325;49.540;8.364;2023-04-24T00:13:12;12.10;99.90
12520;DHT22;6325;49.540;8.364;2023-04-24T00:15:38;12.20;99.90
12520;DHT22;6325;49.540;8.364;2023-04-24T00:18:05;12.10;99.90
12520;DHT22;6325;49.540;8.364;2023-04-24T00:20:32;12.20;99.90
12520;DHT22;6325;49.540;8.364;2023-04-24T00:23:00;12.20;99.90
12520;DHT22;6325;49.540;8.364;2023-04-24T00:25:27;11.60;99.90
12520;DHT22;6325;49.540;8.364;2023-04-24T00:27:55;12.10;99.90
12520;DHT22;6325;49.540;8.364;2023-04-24T00:30:22;12.30;99.90
12520;DHT22;6325;49.540;8.364;2023-04-24T00:32:49;11.60;99.90
12520;DHT22;6325;49.540;8.364;2023-04-24T00:35:16;12.20;99.90
12520;DHT22;6325;49.540;8.364;2023-04-24T00:37:45;12.20;99.90
12520;DHT22;6325;49.540;8.364;2023-04-24T00:40:14;12.30;99.90
12520;DHT22;6325;49.540;8.364;2023-04-24T00:42:41;12.30;99.90
12520;DHT22;6325;49.540;8.364;2023-04-24T00:45:10;12.80;99.90
12520;DHT22;6325;49.540;8.364;2023-04-24T00:47:37;12.20;99.90
12520;DHT22;6325;49.540;8.364;2023-04-24T00:50:05;12.30;99.90
12520;DHT22;6325;49.540;8.364;2023-04-24T00:52:32;12.30;99.90
12520;DHT22;6325;49.540;8.364;2023-04-24T00:54:59;12.30;99.90
12520;DHT22;6325;49.540;8.364;2023-04-24T00:57:26;12.30;99.90
12520;DHT22;6325;49.540;8.364;2023-04-24T00:59:53;12.70;99.90
12520;DHT22;6325;49.540;8.364;2023-04-24T01:02:22;12.40;99.90
12520;DHT22;6325;49.540;8.364;2023-04-24T01:04:50;12.20;99.90
12520;DHT22;6325;49.540;8.364;2023-04-24T01:07:19;13.10;99.90
12520;DHT22;6325;49.540;8.364;2023-04-24T01:09:48;12.90;99.90
12520;DHT22;6325;49.540;8.364;2023-04-24T01:12:17;12.00;99.90
12520;DHT22;6325;49.540;8.364;2023-04-24T01:14:44;12.90;99.90
12520;DHT22;6325;49.540;8.364;2023-04-24T01:17:11;12.20;99.90
12520;DHT22;6325;49.540;8.364;2023-04-24T01:19:39;12.30;99.90
12520;DHT22;6325;49.540;8.364;2023-04-24T01:22:12;12.60;99.90
12520;DHT22;6325;49.540;8.364;2023-04-24T01:24:39;11.70;99.90
12520;DHT22;6325;49.540;8.364;2023-04-24T01:27:06;12.30;99.90
12520;DHT22;6325;49.540;8.364;2023-04-24T01:29:34;12.20;99.90
12520;DHT22;6325;49.540;8.364;2023-04-24T01:32:02;12.80;99.90
12520;DHT22;6325;49.540;8.364;2023-04-24T01:34:29;12.30;99.90
12520;DHT22;6325;49.540;8.364;2023-04-24T01:36:56;12.00;99.90
12520;DHT22;6325;49.540;8.364;2023-04-24T01:39:27;12.60;99.90
12520;DHT22;6325;49.540;8.364;2023-04-24T01:41:54;12.30;99.90
12520;DHT22;6325;49.540;8.364;2023-04-24T01:44:21;12.30;99.90
12520;DHT22;6325;49.540;8.364;2023-04-24T01:46:48;12.80;99.90
12520;DHT22;6325;49.540;8.364;2023-04-24T01:49:15;12.10;99.90
12520;DHT22;6325;49.540;8.364;2023-04-24T01:51:42;12.30;99.90
12520;DHT22;6325;49.540;8.364;2023-04-24T01:54:08;13.00;99.90
12520;DHT22;6325;49.540;8.364;2023-04-24T01:56:40;12.40;99.90
12520;DHT22;6325;49.540;8.364;2023-04-24T01:59:07;12.30;99.90
12520;DHT22;6325;49.540;8.364;2023-04-24T02:01:36;12.60;99.90
12520;DHT22;6325;49.540;8.364;2023-04-24T02:04:03;12.40;99.90
12520;DHT22;6325;49.540;8.364;2023-04-24T02:06:30;12.40;99.90
12520;DHT22;6325;49.540;8.364;2023-04-24T02:08:57;12.40;99.90
12520;DHT22;6325;49.540;8.364;2023-04-24T02:11:24;11.90;99.90
12520;DHT22;6325;49.540;8.364;2023-04-24T02:13:53;12.80;99.90
12520;DHT22;6325;49.540;8.364;2023-04-24T02:16:21;12.10;99.90
12520;DHT22;6325;49.540;8.364;2023-04-24T02:18:47;12.30;99.90
12520;DHT22;6325;49.540;8.364;2023-04-24T02:21:14;11.90;99.90
12520;DHT22;6325;49.540;8.364;2023-04-24T02:23:41;12.80;99.90
12520;DHT22;6325;49.540;8.364;2023-04-24T02:26:08;12.10;99.90
12520;DHT22;6325;49.540;8.364;2023-04-24T02:28:35;12.10;99.90
12520;DHT22;6325;49.540;8.364;2023-04-24T02:31:04;12.00;99.90
12520;DHT22;6325;49.540;8.364;2023-04-24T02:33:31;12.20;99.90
12520;DHT22;6325;49.540;8.364;2023-04-24T02:35:58;12.30;99.90
12520;DHT22;6325;49.540;8.364;2023-04-24T02:38:25;11.90;99.90
12520;DHT22;6325;49.540;8.364;2023-04-24T02:40:52;11.90;99.90
12520;DHT22;6325;49.540;8.364;2023-04-24T02:43:18;12.00;99.90
12520;DHT22;6325;49.540;8.364;2023-04-24T02:45:45;11.70;99.90
12520;DHT22;6325;49.540;8.364;2023-04-24T02:48:13;12.00;99.90
12520;DHT22;6325;49.540;8.364;2023-04-24T02:50:40;11.50;99.90
12520;DHT22;6325;49.540;8.364;2023-04-24T02:53:07;11.10;99.90
12520;DHT22;6325;49.540;8.364;2023-04-24T02:55:34;11.90;99.90
12520;DHT22;6325;49.540;8.364;2023-04-24T02:58:01;11.10;99.90
12520;DHT22;6325;49.540;8.364;2023-04-24T03:00:28;12.30;99.90
12520;DHT22;6325;49.540;8.364;2023-04-24T03:02:55;11.70;99.90
12520;DHT22;6325;49.540;8.364;2023-04-24T03:05:23;11.40;99.90
12520;DHT22;6325;49.540;8.364;2023-04-24T03:07:50;11.50;99.90
12520;DHT22;6325;49.540;8.364;2023-04-24T03:10:18;11.70;99.90
12520;DHT22;6325;49.540;8.364;2023-04-24T03:12:45;12.10;99.90
12520;DHT22;6325;49.540;8.364;2023-04-24T03:15:11;11.80;99.90
12520;DHT22;6325;49.540;8.364;2023-04-24T03:17:38;11.60;99.90
12520;DHT22;6325;49.540;8.364;2023-04-24T03:20:06;11.50;99.90
12520;DHT22;6325;49.540;8.364;2023-04-24T03:22:35;11.60;99.90
12520;DHT22;6325;49.540;8.364;2023-04-24T03:25:02;11.40;99.90
12520;DHT22;6325;49.540;8.364;2023-04-24T03:27:29;11.50;99.90
12520;DHT22;6325;49.540;8.364;2023-04-24T03:29:56;12.00;99.90
12520;DHT22;6325;49.540;8.364;2023-04-24T03:32:23;12.10;99.90
12520;DHT22;6325;49.540;8.364;2023-04-24T03:34:50;11.50;99.90
12520;DHT22;6325;49.540;8.364;2023-04-24T03:37:17;11.60;99.90
12520;DHT22;6325;49.540;8.364;2023-04-24T03:39:45;11.60;99.90
12520;DHT22;6325;49.540;8.364;2023-04-24T03:42:12;11.10;99.90
12520;DHT22;6325;49.540;8.364;2023-04-24T03:44:39;10.90;99.90
12520;DHT22;6325;49.540;8.364;2023-04-24T03:47:06;11.20;99.90
12520;DHT22;6325;49.540;8.364;2023-04-24T03:49:33;11.00;99.90
12520;DHT22;6325;49.540;8.364;2023-04-24T03:51:59;11.80;99.90
12520;DHT22;6325;49.540;8.364;2023-04-24T03:54:27;11.30;99.90
12520;DHT22;6325;49.540;8.364;2023-04-24T03:56:55;11.40;99.90
12520;DHT22;6325;49.540;8.364;2023-04-24T03:59:22;11.70;99.90
12520;DHT22;6325;49.540;8.364;2023-04-24T04:01:48;11.00;99.90
12520;DHT22;6325;49.540;8.364;2023-04-24T04:04:15;11.40;99.90
12520;DHT22;6325;49.540;8.364;2023-04-24T04:06:42;10.60;99.90
12520;DHT22;6325;49.540;8.364;2023-04-24T04:09:09;11.20;99.90
12520;DHT22;6325;49.540;8.364;2023-04-24T04:11:37;11.00;99.90
12520;DHT22;6325;49.540;8.364;2023-04-24T04:14:05;10.80;99.90
12520;DHT22;6325;49.540;8.364;2023-04-24T04:16:32;11.30;99.90
12520;DHT22;6325;49.540;8.364;2023-04-24T04:18:58;10.80;99.90
12520;DHT22;6325;49.540;8.364;2023-04-24T04:21:25;10.40;99.90
12520;DHT22;6325;49.540;8.364;2023-04-24T04:23:53;10.40;99.90
12520;DHT22;6325;49.540;8.364;2023-04-24T04:26:20;10.90;99.90
12520;DHT22;6325;49.540;8.364;2023-04-24T04:28:50;10.90;99.90
12520;DHT22;6325;49.540;8.364;2023-04-24T04:31:19;10.80;99.90
12520;DHT22;6325;49.540;8.364;2023-04-24T04:33:46;10.70;99.90
12520;DHT22;6325;49.540;8.364;2023-04-24T04:36:13;10.70;99.90
12520;DHT22;6325;49.540;8.364;2023-04-24T04:38:39;10.50;99.90
12520;DHT22;6325;49.540;8.364;2023-04-24T04:41:08;10.60;99.90
12520;DHT22;6325;49.540;8.364;2023-04-24T04:43:37;10.50;99.90
12520;DHT22;6325;49.540;8.364;2023-04-24T04:46:06;10.80;99.90
12520;DHT22;6325;49.540;8.364;2023-04-24T04:48:35;10.90;99.90
12520;DHT22;6325;49.540;8.364;2023-04-24T04:51:02;10.90;99.90
12520;DHT22;6325;49.540;8.364;2023-04-24T04:53:28;10.70;99.90
12520;DHT22;6325;49.540;8.364;2023-04-24T04:55:55;10.10;99.90
12520;DHT22;6325;49.540;8.364;2023-04-24T04:58:22;11.00;99.90
12520;DHT22;6325;49.540;8.364;2023-04-24T05:00:49;10.40;99.90
12520;DHT22;6325;49.540;8.364;2023-04-24T05:03:16;10.20;99.90
12520;DHT22;6325;49.540;8.364;2023-04-24T05:05:44;10.70;99.90
12520;DHT22;6325;49.540;8.364;2023-04-24T05:08:11;10.20;99.90
12520;DHT22;6325;49.540;8.364;2023-04-24T05:10:39;10.50;99.90
12520;DHT22;6325;49.540;8.364;2023-04-24T05:13:06;10.60;99.90
12520;DHT22;6325;49.540;8.364;2023-04-24T05:15:33;10.80;99.90
12520;DHT22;6325;49.540;8.364;2023-04-24T05:17:59;11.30;99.90
12520;DHT22;6325;49.540;8.364;2023-04-24T05:20:26;10.80;99.90
12520;DHT22;6325;49.540;8.364;2023-04-24T05:22:54;10.90;99.90
12520;DHT22;6325;49.540;8.364;2023-04-24T05:25:21;10.80;99.90
12520;DHT22;6325;49.540;8.364;2023-04-24T05:27:48;10.80;99.90
12520;DHT22;6325;49.540;8.364;2023-04-24T05:30:15;11.20;99.90
12520;DHT22;6325;49.540;8.364;2023-04-24T05:32:41;10.80;99.90
12520;DHT22;6325;49.540;8.364;2023-04-24T05:35:08;11.10;99.90
12520;DHT22;6325;49.540;8.364;2023-04-24T05:37:35;11.20;99.90
12520;DHT22;6325;49.540;8.364;2023-04-24T05:40:04;10.60;99.90
12520;DHT22;6325;49.540;8.364;2023-04-24T05:42:31;10.90;99.90
12520;DHT22;6325;49.540;8.364;2023-04-24T05:44:59;10.90;99.90
12520;DHT22;6325;49.540;8.364;2023-04-24T05:47:26;10.90;99.90
12520;DHT22;6325;49.540;8.364;2023-04-24T05:49:53;11.00;99.90
12520;DHT22;6325;49.540;8.364;2023-04-24T05:52:19;11.00;99.90
12520;DHT22;6325;49.540;8.364;2023-04-24T05:54:46;11.30;99.90
12520;DHT22;6325;49.540;8.364;2023-04-24T05:57:14;10.90;99.90
12520;DHT22;6325;49.540;8.364;2023-04-24T05:59:41;11.00;99.90
12520;DHT22;6325;49.540;8.364;2023-04-24T06:02:08;11.30;99.90
12520;DHT22;6325;49.540;8.364;2023-04-24T06:04:35;10.90;99.90
12520;DHT22;6325;49.540;8.364;2023-04-24T06:07:02;10.50;99.90
12520;DHT22;6325;49.540;8.364;2023-04-24T06:09:30;11.10;99.90
12520;DHT22;6325;49.540;8.364;2023-04-24T06:11:56;11.30;99.90
12520;DHT22;6325;49.540;8.364;2023-04-24T06:14:25;11.70;99.90
12520;DHT22;6325;49.540;8.364;2023-04-24T06:16:52;11.20;99.90
12520;DHT22;6325;49.540;8.364;2023-04-24T06:19:19;11.50;99.90
12520;DHT22;6325;49.540;8.364;2023-04-24T06:21:46;11.30;99.90
12520;DHT22;6325;49.540;8.364;2023-04-24T06:24:14;11.50;99.90
12520;DHT22;6325;49.540;8.364;2023-04-24T06:26:41;11.50;99.90
12520;DHT22;6325;49.540;8.364;2023-04-24T06:29:08;11.40;99.90
12520;DHT22;6325;49.540;8.364;2023-04-24T06:31:37;11.80;99.90
12520;DHT22;6325;49.540;8.364;2023-04-24T06:34:03;11.70;99.90
12520;DHT22;6325;49.540;8.364;2023-04-24T06:36:31;11.80;99.90
12520;DHT22;6325;49.540;8.364;2023-04-24T06:39:01;11.30;99.90
12520;DHT22;6325;49.540;8.364;2023-04-24T06:41:28;11.30;99.90
12520;DHT22;6325;49.540;8.364;2023-04-24T06:43:55;11.30;99.90
12520;DHT22;6325;49.540;8.364;2023-04-24T06:46:22;11.30;99.90
12520;DHT22;6325;49.540;8.364;2023-04-24T06:48:52;10.80;99.90
12520;DHT22;6325;49.540;8.364;2023-04-24T06:51:22;10.90;99.90
12520;DHT22;6325;49.540;8.364;2023-04-24T06:53:48;11.20;99.90
12520;DHT22;6325;49.540;8.364;2023-04-24T06:56:15;11.20;99.90
12520;DHT22;6325;49.540;8.364;2023-04-24T06:58:42;11.20;99.90
12520;DHT22;6325;49.540;8.364;2023-04-24T07:01:09;11.20;99.90
12520;DHT22;6325;49.540;8.364;2023-04-24T07:03:36;11.30;99.90
12520;DHT22;6325;49.540;8.364;2023-04-24T07:06:05;11.60;99.90
12520;DHT22;6325;49.540;8.364;2023-04-24T07:08:32;10.90;99.90
12520;DHT22;6325;49.540;8.364;2023-04-24T07:11:00;11.90;99.90
12520;DHT22;6325;49.540;8.364;2023-04-24T07:13:27;12.30;99.90
12520;DHT22;6325;49.540;8.364;2023-04-24T07:15:54;11.30;99.90
12520;DHT22;6325;49.540;8.364;2023-04-24T07:18:21;11.80;99.90
12520;DHT22;6325;49.540;8.364;2023-04-24T07:20:48;11.70;99.90
12520;DHT22;6325;49.540;8.364;2023-04-24T07:23:17;11.20;99.90
12520;DHT22;6325;49.540;8.364;2023-04-24T07:25:44;11.20;99.90
12520;DHT22;6325;49.540;8.364;2023-04-24T07:28:12;11.50;99.90
12520;DHT22;6325;49.540;8.364;2023-04-24T07:30:39;11.80;99.90
12520;DHT22;6325;49.540;8.364;2023-04-24T07:33:06;11.90;99.90
12520;DHT22;6325;49.540;8.364;2023-04-24T07:35:33;11.70;99.90
12520;DHT22;6325;49.540;8.364;2023-04-24T07:38:00;12.20;99.90
12520;DHT22;6325;49.540;8.364;2023-04-24T07:40:28;11.80;99.90
12520;DHT22;6325;49.540;8.364;2023-04-24T07:42:55;12.50;99.90
12520;DHT22;6325;49.540;8.364;2023-04-24T07:45:22;12.00;99.90
12520;DHT22;6325;49.540;8.364;2023-04-24T07:47:51;12.80;99.90
12520;DHT22;6325;49.540;8.364;2023-04-24T07:50:18;12.70;99.90
12520;DHT22;6325;49.540;8.364;2023-04-24T07:52:45;13.30;99.90
12520;DHT22;6325;49.540;8.364;2023-04-24T07:55:12;13.00;99.90
12520;DHT22;6325;49.540;8.364;2023-04-24T07:57:40;13.40;99.90
12520;DHT22;6325;49.540;8.364;2023-04-24T08:00:08;13.00;99.90
12520;DHT22;6325;49.540;8.364;2023-04-24T08:02:35;13.10;99.90
12520;DHT22;6325;49.540;8.364;2023-04-24T08:05:02;13.20;99.90
12520;DHT22;6325;49.540;8.364;2023-04-24T08:07:29;13.30;99.90
12520;DHT22;6325;49.540;8.364;2023-04-24T08:09:56;13.40;99.90
12520;DHT22;6325;49.540;8.364;2023-04-24T08:12:23;13.40;99.90
12520;DHT22;6325;49.540;8.364;2023-04-24T08:14:51;13.50;99.90
12520;DHT22;6325;49.540;8.364;2023-04-24T08:17:18;13.60;99.90
12520;DHT22;6325;49.540;8.364;2023-04-24T08:19:45;13.50;99.90
12520;DHT22;6325;49.540;8.364;2023-04-24T08:22:14;13.10;99.90
12520;DHT22;6325;49.540;8.364;2023-04-24T08:24:40;13.10;99.90
12520;DHT22;6325;49.540;8.364;2023-04-24T08:27:08;12.60;99.90
12520;DHT22;6325;49.540;8.364;2023-04-24T08:29:35;13.00;99.90
12520;DHT22;6325;49.540;8.364;2023-04-24T08:32:06;13.50;99.90
12520;DHT22;6325;49.540;8.364;2023-04-24T08:34:33;13.40;99.90
12520;DHT22;6325;49.540;8.364;2023-04-24T08:37:00;13.30;99.90
12520;DHT22;6325;49.540;8.364;2023-04-24T08:39:27;13.40;99.90
12520;DHT22;6325;49.540;8.364;2023-04-24T08:41:55;13.70;99.90
12520;DHT22;6325;49.540;8.364;2023-04-24T08:44:22;13.50;99.90
12520;DHT22;6325;49.540;8.364;2023-04-24T08:46:49;13.20;99.90
12520;DHT22;6325;49.540;8.364;2023-04-24T08:49:18;13.10;99.90
12520;DHT22;6325;49.540;8.364;2023-04-24T08:51:45;13.10;99.90
12520;DHT22;6325;49.540;8.364;2023-04-24T08:54:13;13.00;99.90
12520;DHT22;6325;49.540;8.364;2023-04-24T08:56:43;12.80;99.90
12520;DHT22;6325;49.540;8.364;2023-04-24T08:59:11;13.10;99.90
12520;DHT22;6325;49.540;8.364;2023-04-24T09:01:38;13.60;99.90
12520;DHT22;6325;49.540;8.364;2023-04-24T09:04:07;13.20;99.90
12520;DHT22;6325;49.540;8.364;2023-04-24T09:06:37;13.80;99.90
12520;DHT22;6325;49.540;8.364;2023-04-24T09:09:04;13.20;99.90
12520;DHT22;6325;49.540;8.364;2023-04-24T09:11:31;13.40;99.90
12520;DHT22;6325;49.540;8.364;2023-04-24T09:13:59;12.50;99.90
12520;DHT22;6325;49.540;8.364;2023-04-24T09:16:26;13.60;99.90
12520;DHT22;6325;49.540;8.364;2023-04-24T09:18:53;13.80;99.90
12520;DHT22;6325;49.540;8.364;2023-04-24T09:21:21;14.30;99.90
12520;DHT22;6325;49.540;8.364;2023-04-24T09:23:59;14.40;99.90
12520;DHT22;6325;49.540;8.364;2023-04-24T09:26:29;14.40;99.90
12520;DHT22;6325;49.540;8.364;2023-04-24T09:28:58;13.10;99.90
12520;DHT22;6325;49.540;8.364;2023-04-24T09:31:27;13.90;99.90
12520;DHT22;6325;49.540;8.364;2023-04-24T09:33:56;13.70;99.90
12520;DHT22;6325;49.540;8.364;2023-04-24T09:36:30;13.00;99.90
12520;DHT22;6325;49.540;8.364;2023-04-24T09:39:01;13.40;99.90
12520;DHT22;6325;49.540;8.364;2023-04-24T09:41:28;13.50;99.90
12520;DHT22;6325;49.540;8.364;2023-04-24T09:43:56;13.30;99.90
12520;DHT22;6325;49.540;8.364;2023-04-24T09:46:30;12.50;99.90
12520;DHT22;6325;49.540;8.364;2023-04-24T09:48:57;13.00;99.90
12520;DHT22;6325;49.540;8.364;2023-04-24T09:51:39;13.00;99.90
12520;DHT22;6325;49.540;8.364;2023-04-24T09:54:16;13.40;99.90
12520;DHT22;6325;49.540;8.364;2023-04-24T09:56:47;13.10;99.90
12520;DHT22;6325;49.540;8.364;2023-04-24T09:59:15;13.20;99.90
12520;DHT22;6325;49.540;8.364;2023-04-24T10:01:42;13.40;99.90
12520;DHT22;6325;49.540;8.364;2023-04-24T10:04:17;13.70;99.90
12520;DHT22;6325;49.540;8.364;2023-04-24T10:06:45;13.10;99.90
12520;DHT22;6325;49.540;8.364;2023-04-24T10:09:13;13.70;99.90
12520;DHT22;6325;49.540;8.364;2023-04-24T10:11:42;14.00;99.90
12520;DHT22;6325;49.540;8.364;2023-04-24T10:14:12;14.00;99.90
12520;DHT22;6325;49.540;8.364;2023-04-24T10:16:40;14.30;99.90
12520;DHT22;6325;49.540;8.364;2023-04-24T10:19:07;14.60;99.90
12520;DHT22;6325;49.540;8.364;2023-04-24T10:21:34;15.00;99.90
12520;DHT22;6325;49.540;8.364;2023-04-24T10:24:03;14.30;99.90
12520;DHT22;6325;49.540;8.364;2023-04-24T10:26:33;14.60;99.90
12520;DHT22;6325;49.540;8.364;2023-04-24T10:29:01;14.50;99.90
12520;DHT22;6325;49.540;8.364;2023-04-24T10:31:31;14.60;99.90
12520;DHT22;6325;49.540;8.364;2023-04-24T10:33:59;14.30;99.90
12520;DHT22;6325;49.540;8.364;2023-04-24T10:36:28;13.80;99.90
12520;DHT22;6325;49.540;8.364;2023-04-24T10:38:59;14.30;99.90
12520;DHT22;6325;49.540;8.364;2023-04-24T10:41:26;14.30;99.90
12520;DHT22;6325;49.540;8.364;2023-04-24T10:44:08;14.00;99.90
12520;DHT22;6325;49.540;8.364;2023-04-24T10:46:35;14.70;99.90
12520;DHT22;6325;49.540;8.364;2023-04-24T10:49:04;14.80;99.90
12520;DHT22;6325;49.540;8.364;2023-04-24T10:51:45;14.50;99.90
12520;DHT22;6325;49.540;8.364;2023-04-24T10:54:23;14.10;99.90
12520;DHT22;6325;49.540;8.364;2023-04-24T10:56:51;14.90;99.90
12520;DHT22;6325;49.540;8.364;2023-04-24T10:59:26;14.60;99.90
12520;DHT22;6325;49.540;8.364;2023-04-24T11:01:53;14.30;99.90
12520;DHT22;6325;49.540;8.364;2023-04-24T11:04:30;14.40;99.90
12520;DHT22;6325;49.540;8.364;2023-04-24T11:06:57;15.00;99.90
12520;DHT22;6325;49.540;8.364;2023-04-24T11:09:27;14.40;99.90
12520;DHT22;6325;49.540;8.364;2023-04-24T11:12:03;14.10;99.90
12520;DHT22;6325;49.540;8.364;2023-04-24T11:14:59;14.00;99.90
12520;DHT22;6325;49.540;8.364;2023-04-24T11:17:29;14.20;99.90
12520;DHT22;6325;49.540;8.364;2023-04-24T11:20:01;13.90;99.90
12520;DHT22;6325;49.540;8.364;2023-04-24T11:22:30;14.20;99.90
12520;DHT22;6325;49.540;8.364;2023-04-24T11:25:00;14.30;99.90
12520;DHT22;6325;49.540;8.364;2023-04-24T11:27:30;14.50;99.90
12520;DHT22;6325;49.540;8.364;2023-04-24T11:30:03;14.20;99.90
12520;DHT22;6325;49.540;8.364;2023-04-24T11:32:35;15.10;99.90
12520;DHT22;6325;49.540;8.364;2023-04-24T11:35:04;15.00;99.90
12520;DHT22;6325;49.540;8.364;2023-04-24T11:37:34;15.00;99.90
12520;DHT22;6325;49.540;8.364;2023-04-24T11:40:02;14.20;99.90
12520;DHT22;6325;49.540;8.364;2023-04-24T11:42:34;13.80;99.90
12520;DHT22;6325;49.540;8.364;2023-04-24T11:45:07;14.00;99.90
12520;DHT22;6325;49.540;8.364;2023-04-24T11:47:34;13.90;99.90
12520;DHT22;6325;49.540;8.364;2023-04-24T11:50:02;13.90;99.90
12520;DHT22;6325;49.540;8.364;2023-04-24T11:52:29;13.80;99.90
12520;DHT22;6325;49.540;8.364;2023-04-24T11:54:57;13.80;99.90
12520;DHT22;6325;49.540;8.364;2023-04-24T11:57:25;14.10;99.90
12520;DHT22;6325;49.540;8.364;2023-04-24T11:59:54;14.60;99.90
12520;DHT22;6325;49.540;8.364;2023-04-24T12:02:26;15.50;99.90
12520;DHT22;6325;49.540;8.364;2023-04-24T12:04:54;15.30;99.90
12520;DHT22;6325;49.540;8.364;2023-04-24T12:07:22;15.60;99.90
12520;DHT22;6325;49.540;8.364;2023-04-24T12:09:56;16.10;99.90
12520;DHT22;6325;49.540;8.364;2023-04-24T12:12:25;16.20;99.90
12520;DHT22;6325;49.540;8.364;2023-04-24T12:14:54;15.90;99.90
12520;DHT22;6325;49.540;8.364;2023-04-24T12:17:26;16.00;99.90
12520;DHT22;6325;49.540;8.364;2023-04-24T12:19:57;16.10;99.90
12520;DHT22;6325;49.540;8.364;2023-04-24T12:22:24;16.40;99.90
12520;DHT22;6325;49.540;8.364;2023-04-24T12:25:01;15.80;99.90
12520;DHT22;6325;49.540;8.364;2023-04-24T12:27:30;15.80;99.90
12520;DHT22;6325;49.540;8.364;2023-04-24T12:29:59;15.70;99.90
12520;DHT22;6325;49.540;8.364;2023-04-24T12:32:27;15.30;99.90
12520;DHT22;6325;49.540;8.364;2023-04-24T12:34:55;15.10;99.90
12520;DHT22;6325;49.540;8.364;2023-04-24T12:37:23;15.10;99.90
12520;DHT22;6325;49.540;8.364;2023-04-24T12:40:13;15.10;99.90
12520;DHT22;6325;49.540;8.364;2023-04-24T12:42:43;14.90;99.90
12520;DHT22;6325;49.540;8.364;2023-04-24T12:45:10;15.50;99.90
12520;DHT22;6325;49.540;8.364;2023-04-24T12:47:40;16.10;99.90
12520;DHT22;6325;49.540;8.364;2023-04-24T12:50:08;15.50;99.90
12520;DHT22;6325;49.540;8.364;2023-04-24T12:52:35;15.50;99.90
12520;DHT22;6325;49.540;8.364;2023-04-24T12:55:03;15.60;99.90
12520;DHT22;6325;49.540;8.364;2023-04-24T12:57:33;15.70;99.90
12520;DHT22;6325;49.540;8.364;2023-04-24T13:00:01;15.50;99.90
12520;DHT22;6325;49.540;8.364;2023-04-24T13:02:29;15.40;99.90
12520;DHT22;6325;49.540;8.364;2023-04-24T13:04:59;15.00;99.90
12520;DHT22;6325;49.540;8.364;2023-04-24T13:07:26;15.00;99.90
12520;DHT22;6325;49.540;8.364;2023-04-24T13:09:54;15.10;99.90
12520;DHT22;6325;49.540;8.364;2023-04-24T13:12:21;15.20;99.90
12520;DHT22;6325;49.540;8.364;2023-04-24T13:14:49;15.50;99.90
12520;DHT22;6325;49.540;8.364;2023-04-24T13:17:16;16.40;99.90
12520;DHT22;6325;49.540;8.364;2023-04-24T13:19:44;16.00;99.90
12520;DHT22;6325;49.540;8.364;2023-04-24T13:22:13;16.50;99.90
12520;DHT22;6325;49.540;8.364;2023-04-24T13:24:40;16.40;99.90
12520;DHT22;6325;49.540;8.364;2023-04-24T13:27:07;16.90;99.90
12520;DHT22;6325;49.540;8.364;2023-04-24T13:29:34;16.70;99.90
12520;DHT22;6325;49.540;8.364;2023-04-24T13:32:01;16.50;99.90
12520;DHT22;6325;49.540;8.364;2023-04-24T13:34:28;16.80;99.90
12520;DHT22;6325;49.540;8.364;2023-04-24T13:36:56;16.70;99.90
12520;DHT22;6325;49.540;8.364;2023-04-24T13:39:25;16.50;99.90
12520;DHT22;6325;49.540;8.364;2023-04-24T13:41:52;16.30;99.90
12520;DHT22;6325;49.540;8.364;2023-04-24T13:44:20;16.10;99.90
12520;DHT22;6325;49.540;8.364;2023-04-24T13:46:49;15.30;99.90
12520;DHT22;6325;49.540;8.364;2023-04-24T13:49:20;15.20;99.90
12520;DHT22;6325;49.540;8.364;2023-04-24T13:51:47;15.20;99.90
12520;DHT22;6325;49.540;8.364;2023-04-24T13:54:14;14.80;99.90
12520;DHT22;6325;49.540;8.364;2023-04-24T13:56:43;15.10;99.90
12520;DHT22;6325;49.540;8.364;2023-04-24T13:59:11;15.40;99.90
12520;DHT22;6325;49.540;8.364;2023-04-24T14:01:38;14.80;99.90
12520;DHT22;6325;49.540;8.364;2023-04-24T14:04:05;14.80;99.90
12520;DHT22;6325;49.540;8.364;2023-04-24T14:06:32;14.30;99.90
12520;DHT22;6325;49.540;8.364;2023-04-24T14:08:59;14.60;99.90
12520;DHT22;6325;49.540;8.364;2023-04-24T14:11:26;14.50;99.90
12520;DHT22;6325;49.540;8.364;2023-04-24T14:13:54;14.60;99.90
12520;DHT22;6325;49.540;8.364;2023-04-24T14:16:22;13.90;99.90
12520;DHT22;6325;49.540;8.364;2023-04-24T14:18:49;15.00;99.90
12520;DHT22;6325;49.540;8.364;2023-04-24T14:21:16;14.90;99.90
12520;DHT22;6325;49.540;8.364;2023-04-24T14:23:43;15.00;99.90
12520;DHT22;6325;49.540;8.364;2023-04-24T14:26:10;15.60;99.90
12520;DHT22;6325;49.540;8.364;2023-04-24T14:28:37;16.50;99.90
12520;DHT22;6325;49.540;8.364;2023-04-24T14:31:05;16.40;99.90
12520;DHT22;6325;49.540;8.364;2023-04-24T14:33:33;17.10;99.90
12520;DHT22;6325;49.540;8.364;2023-04-24T14:36:00;17.70;99.90
12520;DHT22;6325;49.540;8.364;2023-04-24T14:38:28;17.90;99.90
12520;DHT22;6325;49.540;8.364;2023-04-24T14:40:55;18.50;99.90
12520;DHT22;6325;49.540;8.364;2023-04-24T14:43:22;17.80;99.90
12520;DHT22;6325;49.540;8.364;2023-04-24T14:45:49;17.90;99.90
12520;DHT22;6325;49.540;8.364;2023-04-24T14:48:17;17.30;99.90
12520;DHT22;6325;49.540;8.364;2023-04-24T14:50:44;15.80;99.90
12520;DHT22;6325;49.540;8.364;2023-04-24T14:53:11;16.20;99.90
12520;DHT22;6325;49.540;8.364;2023-04-24T14:55:38;15.80;99.90
12520;DHT22;6325;49.540;8.364;2023-04-24T14:58:05;15.70;99.90
12520;DHT22;6325;49.540;8.364;2023-04-24T15:00:32;15.70;99.90
12520;DHT22;6325;49.540;8.364;2023-04-24T15:03:01;15.10;99.90
12520;DHT22;6325;49.540;8.364;2023-04-24T15:05:29;15.00;99.90
12520;DHT22;6325;49.540;8.364;2023-04-24T15:07:56;15.10;99.90
12520;DHT22;6325;49.540;8.364;2023-04-24T15:10:23;15.50;99.90
12520;DHT22;6325;49.540;8.364;2023-04-24T15:12:51;14.60;99.90
12520;DHT22;6325;49.540;8.364;2023-04-24T15:15:18;15.00;99.90
12520;DHT22;6325;49.540;8.364;2023-04-24T15:17:45;14.60;99.90
12520;DHT22;6325;49.540;8.364;2023-04-24T15:20:11;15.30;99.90
12520;DHT22;6325;49.540;8.364;2023-04-24T15:22:55;15.20;99.90
12520;DHT22;6325;49.540;8.364;2023-04-24T15:25:24;15.70;99.90
12520;DHT22;6325;49.540;8.364;2023-04-24T15:27:51;16.00;99.90
12520;DHT22;6325;49.540;8.364;2023-04-24T15:30:18;17.50;99.90
12520;DHT22;6325;49.540;8.364;2023-04-24T15:32:44;17.50;99.90
12520;DHT22;6325;49.540;8.364;2023-04-24T15:35:11;17.60;99.90
12520;DHT22;6325;49.540;8.364;2023-04-24T15:37:38;17.60;99.90
12520;DHT22;6325;49.540;8.364;2023-04-24T15:40:07;17.00;99.90
12520;DHT22;6325;49.540;8.364;2023-04-24T15:42:36;15.70;99.90
12520;DHT22;6325;49.540;8.364;2023-04-24T15:45:06;15.90;99.90
12520;DHT22;6325;49.540;8.364;2023-04-24T15:47:33;15.70;99.90
12520;DHT22;6325;49.540;8.364;2023-04-24T15:50:00;15.60;99.90